createdAt,value
2023-01-20T00:01:43.618Z,7.88
2023-01-20T00:04:11.706Z,7.45
2023-01-20T00:06:39.479Z,7.68
2023-01-20T00:09:07.558Z,6.90
2023-01-20T00:11:36.636Z,6.35
2023-01-20T00:14:04.441Z,7.15
2023-01-20T00:16:33.476Z,7.22
2023-01-20T00:19:01.221Z,7.50
2023-01-20T00:21:31.352Z,7.40
2023-01-20T00:23:59.040Z,6.82
2023-01-20T00:26:26.921Z,7.60
2023-01-20T00:28:57.658Z,7.30
2023-01-20T00:31:27.507Z,7.13
2023-01-20T00:33:57.011Z,6.85
2023-01-20T00:36:25.894Z,7.15
2023-01-20T00:38:53.944Z,7.20
2023-01-20T00:41:21.902Z,7.07
2023-01-20T00:43:49.664Z,6.97
2023-01-20T00:46:19.023Z,7.10
2023-01-20T00:48:46.772Z,6.95
2023-01-20T00:51:14.593Z,6.78
2023-01-20T00:53:42.326Z,6.80
2023-01-20T00:56:10.019Z,6.95
2023-01-20T00:58:37.705Z,7.05
2023-01-20T01:01:05.639Z,7.25
2023-01-20T01:03:35.865Z,6.90
2023-01-20T01:06:09.078Z,6.50
2023-01-20T01:08:37.053Z,6.28
2023-01-20T01:11:05.484Z,6.95
2023-01-20T01:13:33.795Z,6.80
2023-01-20T01:16:01.731Z,6.20
2023-01-20T01:18:29.593Z,6.65
2023-01-20T01:20:58.690Z,6.72
2023-01-20T01:23:26.408Z,7.20
2023-01-20T01:25:54.090Z,6.53
2023-01-20T01:28:21.746Z,6.53
2023-01-20T01:30:49.530Z,6.43
2023-01-20T01:33:17.254Z,6.88
2023-01-20T01:35:45.004Z,6.72
2023-01-20T01:38:14.068Z,6.20
2023-01-20T01:40:41.759Z,7.40
2023-01-20T01:43:21.619Z,5.97
2023-01-20T01:45:49.415Z,6.55
2023-01-20T01:48:19.592Z,6.85
2023-01-20T01:50:54.133Z,6.75
2023-01-20T01:53:23.840Z,6.82
2023-01-20T01:55:55.203Z,8.35
2023-01-20T01:58:28.795Z,7.68
2023-01-20T02:00:56.704Z,6.97
2023-01-20T02:03:24.928Z,6.18
2023-01-20T02:05:53.951Z,6.03
2023-01-20T02:08:23.654Z,6.13
2023-01-20T02:10:51.352Z,6.28
2023-01-20T02:13:19.357Z,6.18
2023-01-20T02:15:56.821Z,6.82
2023-01-20T02:18:37.814Z,6.80
2023-01-20T02:21:40.900Z,6.55
2023-01-20T02:24:53.307Z,6.18
2023-01-20T02:27:43.119Z,6.57
2023-01-20T02:30:35.723Z,8.60
2023-01-20T02:33:10.936Z,6.68
2023-01-20T02:35:44.615Z,6.50
2023-01-20T02:38:19.239Z,6.65
2023-01-20T02:40:55.352Z,6.03
2023-01-20T02:43:31.294Z,6.13
2023-01-20T02:46:06.717Z,6.13
2023-01-20T02:48:44.227Z,6.30
2023-01-20T02:51:21.152Z,6.38
2023-01-20T02:53:52.955Z,6.72
2023-01-20T02:56:28.099Z,6.75
2023-01-20T02:58:59.172Z,6.80
2023-01-20T03:01:32.961Z,6.55
2023-01-20T03:04:04.554Z,7.05
2023-01-20T03:06:37.619Z,7.85
2023-01-20T03:09:10.010Z,7.95
2023-01-20T03:11:42.082Z,7.60
2023-01-20T03:14:12.097Z,8.27
2023-01-20T03:16:41.738Z,8.98
2023-01-20T03:19:11.284Z,8.50
2023-01-20T03:21:39.025Z,8.48
2023-01-20T03:24:07.997Z,8.00
2023-01-20T03:26:38.820Z,7.70
2023-01-20T03:29:08.032Z,8.55
2023-01-20T03:31:40.499Z,8.23
2023-01-20T03:34:12.696Z,8.27
2023-01-20T03:36:41.471Z,7.70
2023-01-20T03:39:11.943Z,7.40
2023-01-20T03:41:52.117Z,7.60
2023-01-20T03:44:25.576Z,7.47
2023-01-20T03:46:58.046Z,7.65
2023-01-20T03:49:32.057Z,7.15
2023-01-20T03:52:06.012Z,7.25
2023-01-20T03:54:43.781Z,7.15
2023-01-20T03:57:16.154Z,7.25
2023-01-20T03:59:49.384Z,7.80
2023-01-20T04:02:17.159Z,7.18
2023-01-20T04:04:50.386Z,7.45
2023-01-20T04:07:22.318Z,8.38
2023-01-20T04:09:54.289Z,7.03
2023-01-20T04:12:22.064Z,7.55
2023-01-20T04:14:49.763Z,8.30
2023-01-20T04:17:17.700Z,7.75
2023-01-20T04:19:46.809Z,7.35
2023-01-20T04:22:24.183Z,7.93
2023-01-20T04:24:58.242Z,8.07
2023-01-20T04:27:25.975Z,7.72
2023-01-20T04:29:53.736Z,8.68
2023-01-20T04:32:21.439Z,8.40
2023-01-20T04:34:53.440Z,8.73
2023-01-20T04:37:26.128Z,8.63
2023-01-20T04:39:53.812Z,7.78
2023-01-20T04:42:21.497Z,9.05
2023-01-20T04:44:49.237Z,7.40
2023-01-20T04:47:16.931Z,8.18
2023-01-20T04:49:44.652Z,8.55
2023-01-20T04:52:13.762Z,9.10
2023-01-20T04:54:41.463Z,8.95
2023-01-20T04:57:09.201Z,8.98
2023-01-20T04:59:36.907Z,9.00
2023-01-20T05:02:04.630Z,8.88
2023-01-20T05:04:32.299Z,9.68
2023-01-20T05:07:00.019Z,8.95
2023-01-20T05:09:30.434Z,8.98
2023-01-20T05:11:59.418Z,9.75
2023-01-20T05:14:27.108Z,9.45
2023-01-20T05:16:55.288Z,9.93
2023-01-20T05:19:22.968Z,9.45
2023-01-20T05:21:53.661Z,10.20
2023-01-20T05:24:21.472Z,10.98
2023-01-20T05:26:49.120Z,9.90
2023-01-20T05:29:18.321Z,11.07
2023-01-20T05:31:46.081Z,10.15
2023-01-20T05:34:13.814Z,10.57
2023-01-20T05:36:41.538Z,10.40
2023-01-20T05:39:09.197Z,10.45
2023-01-20T05:41:36.943Z,11.38
2023-01-20T05:44:04.611Z,11.25
2023-01-20T05:46:33.708Z,11.25
2023-01-20T05:49:02.978Z,11.43
2023-01-20T05:51:32.068Z,11.35
2023-01-20T05:53:59.867Z,11.15
2023-01-20T05:56:27.553Z,12.48
2023-01-20T05:58:55.934Z,12.95
2023-01-20T06:01:24.151Z,12.43
2023-01-20T06:03:53.232Z,13.48
2023-01-20T06:06:20.930Z,13.23
2023-01-20T06:08:49.554Z,14.25
2023-01-20T06:11:18.002Z,14.82
2023-01-20T06:13:47.926Z,14.88
2023-01-20T06:16:17.151Z,16.63
2023-01-20T06:18:44.978Z,17.67
2023-01-20T06:21:14.045Z,18.00
2023-01-20T06:23:42.246Z,17.10
2023-01-20T06:26:13.567Z,16.75
2023-01-20T06:28:41.248Z,15.75
2023-01-20T06:31:10.956Z,16.05
2023-01-20T06:33:38.870Z,16.73
2023-01-20T06:36:07.004Z,16.77
2023-01-20T06:38:36.697Z,16.33
2023-01-20T06:41:06.517Z,16.50
2023-01-20T06:43:35.847Z,14.48
2023-01-20T06:46:05.123Z,13.70
2023-01-20T06:48:33.321Z,13.13
2023-01-20T06:51:04.567Z,13.70
2023-01-20T06:53:32.445Z,13.25
2023-01-20T06:56:02.460Z,13.80
2023-01-20T06:58:32.735Z,13.32
2023-01-20T07:01:08.657Z,12.70
2023-01-20T07:03:36.658Z,13.30
2023-01-20T07:06:06.405Z,14.40
2023-01-20T07:08:34.144Z,12.18
2023-01-20T07:11:05.501Z,12.57
2023-01-20T07:13:33.255Z,12.98
2023-01-20T07:16:01.000Z,12.13
2023-01-20T07:18:28.690Z,12.10
2023-01-20T07:20:57.035Z,11.63
2023-01-20T07:23:25.220Z,12.80
2023-01-20T07:25:58.724Z,13.27
2023-01-20T07:28:28.095Z,12.90
2023-01-20T07:30:55.946Z,14.50
2023-01-20T07:33:23.821Z,13.50
2023-01-20T07:35:55.136Z,14.00
2023-01-20T07:38:22.835Z,15.35
2023-01-20T07:40:50.482Z,14.82
2023-01-20T07:43:18.179Z,14.38
2023-01-20T07:45:47.297Z,14.93
2023-01-20T07:48:15.571Z,15.05
2023-01-20T07:50:43.267Z,14.55
2023-01-20T07:53:10.946Z,15.32
2023-01-20T07:55:38.645Z,14.43
2023-01-20T07:58:06.422Z,15.13
2023-01-20T08:00:34.168Z,13.98
2023-01-20T08:03:03.282Z,15.50
2023-01-20T08:05:33.532Z,14.82
2023-01-20T08:08:01.242Z,16.20
2023-01-20T08:10:29.226Z,14.65
2023-01-20T08:12:57.043Z,13.70
2023-01-20T08:15:24.780Z,14.63
2023-01-20T08:17:54.753Z,13.77
2023-01-20T08:20:24.015Z,14.27
2023-01-20T08:22:51.798Z,14.93
2023-01-20T08:25:19.712Z,14.10
2023-01-20T08:27:49.143Z,14.63
2023-01-20T08:30:17.093Z,13.35
2023-01-20T08:32:44.834Z,13.18
2023-01-20T08:35:12.996Z,14.25
2023-01-20T08:37:42.154Z,14.40
2023-01-20T08:40:11.943Z,12.60
2023-01-20T08:42:40.232Z,13.68
2023-01-20T08:45:09.835Z,12.77
2023-01-20T08:47:38.924Z,13.45
2023-01-20T08:50:08.622Z,12.82
2023-01-20T08:52:36.358Z,12.95
2023-01-20T08:55:06.038Z,12.27
2023-01-20T08:57:33.863Z,11.80
2023-01-20T09:00:01.812Z,11.60
2023-01-20T09:02:29.572Z,10.82
2023-01-20T09:04:57.288Z,11.57
2023-01-20T09:07:25.031Z,11.35
2023-01-20T09:09:52.892Z,10.80
2023-01-20T09:12:21.962Z,10.68
2023-01-20T09:14:49.745Z,11.73
2023-01-20T09:17:17.575Z,11.13
2023-01-20T09:19:45.286Z,10.30
2023-01-20T09:22:12.954Z,9.65
2023-01-20T09:24:41.355Z,10.30
2023-01-20T09:27:09.094Z,10.65
2023-01-20T09:29:38.144Z,11.00
2023-01-20T09:32:05.959Z,10.30
2023-01-20T09:34:34.809Z,10.63
2023-01-20T09:37:17.510Z,9.20
2023-01-20T09:40:02.482Z,8.15
2023-01-20T09:42:54.755Z,10.10
2023-01-20T09:45:29.071Z,10.88
2023-01-20T09:48:14.170Z,12.45
2023-01-20T09:51:07.362Z,9.45
2023-01-20T09:53:47.189Z,9.68
2023-01-20T09:56:17.931Z,10.45
2023-01-20T09:58:53.943Z,8.82
2023-01-20T10:01:33.716Z,7.60
2023-01-20T10:04:09.527Z,9.10
2023-01-20T10:06:41.954Z,9.45
2023-01-20T10:09:21.315Z,8.27
2023-01-20T10:11:50.506Z,9.05
2023-01-20T10:14:25.001Z,9.18
2023-01-20T10:16:59.399Z,8.32
2023-01-20T10:19:42.371Z,9.52
2023-01-20T10:22:14.301Z,8.80
2023-01-20T10:24:52.952Z,8.57
2023-01-20T10:27:20.703Z,7.78
2023-01-20T10:29:54.167Z,7.65
2023-01-20T10:32:33.352Z,7.90
2023-01-20T10:35:09.067Z,8.93
2023-01-20T10:37:37.340Z,7.35
2023-01-20T10:40:16.725Z,8.30
2023-01-20T10:42:48.454Z,7.82
2023-01-20T10:45:27.927Z,8.63
2023-01-20T10:48:06.891Z,7.55
2023-01-20T10:50:44.653Z,6.85
2023-01-20T10:53:35.714Z,7.35
2023-01-20T10:56:24.819Z,7.20
2023-01-20T10:58:52.851Z,7.50
2023-01-20T11:01:21.550Z,7.45
2023-01-20T11:03:51.001Z,7.90
2023-01-20T11:06:21.683Z,6.90
2023-01-20T11:08:49.952Z,7.80
2023-01-20T11:11:21.466Z,7.68
2023-01-20T11:13:53.906Z,7.63
2023-01-20T11:16:24.608Z,8.60
2023-01-20T11:19:01.748Z,7.78
2023-01-20T11:21:33.599Z,8.45
2023-01-20T11:24:01.730Z,12.02
2023-01-20T11:26:33.368Z,9.57
2023-01-20T11:29:03.027Z,6.88
2023-01-20T11:31:40.577Z,7.53
2023-01-20T11:34:24.262Z,6.35
2023-01-20T11:37:12.901Z,6.03
2023-01-20T11:40:00.186Z,6.80
2023-01-20T11:42:30.035Z,6.90
2023-01-20T11:45:19.754Z,6.05
2023-01-20T11:48:00.873Z,6.25
2023-01-20T11:50:35.368Z,6.97
2023-01-20T11:53:19.390Z,6.90
2023-01-20T11:55:51.162Z,6.93
2023-01-20T11:58:21.348Z,6.22
2023-01-20T12:00:51.306Z,6.00
2023-01-20T12:03:46.374Z,6.78
2023-01-20T12:06:19.978Z,6.20
2023-01-20T12:08:54.677Z,5.43
2023-01-20T12:11:28.459Z,6.13
2023-01-20T12:14:22.838Z,7.18
2023-01-20T12:16:58.225Z,7.53
2023-01-20T12:22:04.310Z,7.35
2023-01-20T12:24:53.365Z,8.45
2023-01-20T12:27:26.798Z,7.28
2023-01-20T12:29:59.736Z,6.95
2023-01-20T12:32:29.220Z,7.63
2023-01-20T12:34:57.016Z,7.53
2023-01-20T12:37:32.894Z,7.97
2023-01-20T12:40:20.074Z,8.98
2023-01-20T12:43:08.212Z,8.85
2023-01-20T12:45:46.945Z,8.27
2023-01-20T12:48:36.848Z,9.00
2023-01-20T12:51:20.654Z,9.20
2023-01-20T12:54:17.549Z,10.18
2023-01-20T12:56:53.639Z,10.27
2023-01-20T12:59:36.913Z,10.68
2023-01-20T13:02:30.296Z,9.88
2023-01-20T13:05:19.859Z,11.57
2023-01-20T13:08:01.952Z,11.50
2023-01-20T13:10:56.020Z,11.63
2023-01-20T13:13:55.785Z,12.07
2023-01-20T13:16:33.374Z,13.30
2023-01-20T13:19:11.437Z,14.02
2023-01-20T13:21:41.114Z,14.73
2023-01-20T13:24:18.930Z,15.18
2023-01-20T13:26:49.667Z,17.10
2023-01-20T13:29:24.695Z,16.63
2023-01-20T13:31:53.865Z,17.42
2023-01-20T13:34:35.978Z,17.50
2023-01-20T13:37:23.818Z,16.85
2023-01-20T13:39:53.201Z,17.02
2023-01-20T13:42:51.397Z,18.27
2023-01-20T13:45:25.753Z,17.20
2023-01-20T13:47:59.455Z,16.27
2023-01-20T13:50:31.059Z,17.00
2023-01-20T13:53:31.529Z,17.45
2023-01-20T13:56:00.779Z,17.75
2023-01-20T13:58:32.481Z,18.08
2023-01-20T14:01:04.580Z,18.25
2023-01-20T14:03:35.030Z,18.10
2023-01-20T14:06:06.016Z,18.70
2023-01-20T14:08:40.912Z,18.90
2023-01-20T14:11:12.545Z,18.90
2023-01-20T14:13:42.537Z,26.55
2023-01-20T14:16:20.609Z,21.15
2023-01-20T14:18:49.163Z,18.50
2023-01-20T14:21:23.536Z,17.67
2023-01-20T14:23:52.377Z,18.77
2023-01-20T14:26:24.825Z,18.98
2023-01-20T14:28:56.344Z,19.10
2023-01-20T14:31:33.984Z,18.40
2023-01-20T14:34:04.474Z,18.55
2023-01-20T14:36:34.136Z,19.38
2023-01-20T14:39:04.366Z,18.90
2023-01-20T14:41:35.041Z,17.98
2023-01-20T14:44:04.694Z,17.98
2023-01-20T14:46:34.102Z,21.70
2023-01-20T14:49:04.809Z,22.77
2023-01-20T14:51:34.230Z,21.90
2023-01-20T14:54:37.194Z,19.30
2023-01-20T14:57:21.825Z,19.92
2023-01-20T15:00:03.298Z,21.20
2023-01-20T15:02:33.332Z,20.67
2023-01-20T15:05:01.213Z,21.40
2023-01-20T15:07:29.225Z,20.52
2023-01-20T15:10:03.035Z,22.73
2023-01-20T15:12:55.809Z,22.50
2023-01-20T15:15:29.874Z,23.48
2023-01-20T15:18:15.960Z,23.73
2023-01-20T15:20:45.659Z,22.23
2023-01-20T15:23:32.697Z,22.90
2023-01-20T15:26:09.496Z,23.38
2023-01-20T15:28:42.444Z,23.55
2023-01-20T15:31:15.115Z,25.17
2023-01-20T15:33:43.173Z,25.23
2023-01-20T15:36:23.514Z,24.70
2023-01-20T15:38:51.712Z,24.73
2023-01-20T15:41:19.739Z,23.70
2023-01-20T15:43:49.107Z,24.10
2023-01-20T15:46:18.774Z,26.23
2023-01-20T15:48:47.270Z,23.83
2023-01-20T15:51:16.669Z,25.77
2023-01-20T15:53:45.524Z,25.05
2023-01-20T15:56:20.121Z,26.35
2023-01-20T15:58:48.382Z,26.02
2023-01-20T16:01:19.665Z,26.73
2023-01-20T16:03:47.593Z,26.88
2023-01-20T16:06:17.046Z,25.42
2023-01-20T16:08:47.705Z,26.38
2023-01-20T16:11:15.957Z,23.17
2023-01-20T16:13:44.448Z,26.08
2023-01-20T16:16:14.626Z,26.77
2023-01-20T16:18:44.004Z,25.52
2023-01-20T16:21:12.547Z,27.98
2023-01-20T16:23:40.484Z,28.13
2023-01-20T16:26:20.443Z,26.92
2023-01-20T16:28:48.134Z,24.05
2023-01-20T16:31:16.094Z,24.70
2023-01-20T16:33:46.531Z,26.35
2023-01-20T16:36:15.789Z,28.67
2023-01-20T16:38:44.738Z,27.50
2023-01-20T16:41:16.218Z,26.40
2023-01-20T16:43:44.823Z,26.75
2023-01-20T16:46:15.311Z,25.77
2023-01-20T16:48:50.085Z,26.08
2023-01-20T16:51:19.858Z,27.58
2023-01-20T16:53:47.623Z,26.42
2023-01-20T16:56:16.198Z,26.98
2023-01-20T16:58:44.027Z,25.55
2023-01-20T17:01:13.266Z,27.02
2023-01-20T17:03:41.381Z,27.52
2023-01-20T17:06:17.482Z,26.85
2023-01-20T17:08:45.750Z,26.65
2023-01-20T17:11:17.849Z,26.30
2023-01-20T17:13:45.667Z,26.83
2023-01-20T17:16:13.736Z,25.55
2023-01-20T17:18:44.688Z,25.75
2023-01-20T17:21:14.826Z,26.67
2023-01-20T17:23:44.134Z,25.98
2023-01-20T17:26:11.787Z,30.95
2023-01-20T17:28:41.810Z,32.00
2023-01-20T17:31:09.509Z,27.02
2023-01-20T17:33:37.265Z,27.50
2023-01-20T17:36:06.852Z,26.17
2023-01-20T17:38:36.253Z,26.85
2023-01-20T17:41:05.370Z,26.55
2023-01-20T17:43:33.736Z,26.45
2023-01-20T17:46:01.962Z,27.17
2023-01-20T17:48:30.181Z,27.45
2023-01-20T17:50:59.286Z,34.65
2023-01-20T17:53:27.451Z,31.02
2023-01-20T17:56:10.977Z,28.80
2023-01-20T17:58:40.475Z,27.98
2023-01-20T18:01:13.295Z,29.40
2023-01-20T18:03:43.053Z,30.02
2023-01-20T18:06:12.931Z,29.30
2023-01-20T18:08:40.792Z,28.95
2023-01-20T18:11:11.381Z,30.08
2023-01-20T18:13:39.744Z,31.73
2023-01-20T18:16:08.907Z,35.03
2023-01-20T18:18:36.598Z,33.38
2023-01-20T18:21:11.105Z,28.58
2023-01-20T18:23:39.524Z,28.33
2023-01-20T18:26:09.823Z,28.50
2023-01-20T18:28:38.475Z,29.23
2023-01-20T18:31:08.943Z,27.42
2023-01-20T18:33:39.711Z,28.27
2023-01-20T18:36:08.833Z,28.73
2023-01-20T18:38:36.536Z,28.77
2023-01-20T18:41:04.399Z,37.05
2023-01-20T18:43:33.441Z,28.10
2023-01-20T18:46:01.127Z,26.23
2023-01-20T18:48:28.783Z,26.20
2023-01-20T18:50:59.992Z,26.80
2023-01-20T18:53:38.795Z,26.38
2023-01-20T18:56:09.584Z,27.63
2023-01-20T18:58:41.277Z,27.52
2023-01-20T19:01:10.545Z,29.67
2023-01-20T19:03:39.465Z,24.98
2023-01-20T19:06:10.867Z,24.98
2023-01-20T19:08:39.128Z,26.33
2023-01-20T19:11:09.205Z,27.65
2023-01-20T19:13:38.258Z,26.70
2023-01-20T19:16:10.113Z,27.77
2023-01-20T19:18:38.045Z,26.90
2023-01-20T19:21:06.454Z,24.48
2023-01-20T19:23:34.171Z,24.80
2023-01-20T19:26:18.446Z,26.75
2023-01-20T19:28:48.658Z,27.58
2023-01-20T19:31:18.425Z,27.90
2023-01-20T19:33:48.885Z,26.60
2023-01-20T19:36:18.251Z,25.02
2023-01-20T19:38:46.559Z,25.38
2023-01-20T19:41:16.665Z,25.00
2023-01-20T19:43:45.445Z,24.77
2023-01-20T19:46:16.262Z,23.73
2023-01-20T19:48:44.322Z,25.30
2023-01-20T19:51:13.726Z,23.30
2023-01-20T19:53:41.729Z,22.90
2023-01-20T19:56:11.644Z,25.00
2023-01-20T19:58:40.111Z,23.50
2023-01-20T20:01:08.671Z,24.02
2023-01-20T20:03:38.083Z,24.55
2023-01-20T20:06:08.238Z,24.20
2023-01-20T20:08:36.737Z,24.70
2023-01-20T20:11:04.526Z,25.42
2023-01-20T20:13:32.201Z,26.08
2023-01-20T20:16:03.523Z,23.52
2023-01-20T20:18:31.455Z,24.70
2023-01-20T20:21:00.601Z,24.75
2023-01-20T20:23:29.797Z,29.85
2023-01-20T20:25:57.558Z,25.40
2023-01-20T20:28:25.639Z,25.88
2023-01-20T20:30:55.386Z,60.67
2023-01-20T20:33:24.082Z,97.85
2023-01-20T20:35:51.794Z,41.70
2023-01-20T20:38:20.830Z,26.77
2023-01-20T20:40:48.476Z,24.63
2023-01-20T20:43:16.163Z,23.75
2023-01-20T20:45:43.825Z,24.67
2023-01-20T20:48:11.531Z,25.40
2023-01-20T20:50:39.174Z,22.30
2023-01-20T20:53:06.905Z,23.70
2023-01-20T20:55:40.248Z,22.83
2023-01-20T20:58:08.473Z,23.08
2023-01-20T21:00:36.627Z,22.52
2023-01-20T21:03:06.835Z,22.33
2023-01-20T21:05:34.808Z,23.42
2023-01-20T21:08:04.683Z,23.50
2023-01-20T21:10:32.461Z,23.40
2023-01-20T21:13:01.487Z,23.60
2023-01-20T21:15:30.441Z,23.35
2023-01-20T21:17:58.303Z,23.63
2023-01-20T21:20:25.978Z,23.35
2023-01-20T21:22:53.667Z,22.83
2023-01-20T21:25:24.029Z,24.67
2023-01-20T21:27:51.760Z,23.17
2023-01-20T21:30:21.134Z,21.98
2023-01-20T21:32:48.823Z,21.83
2023-01-20T21:35:16.621Z,23.88
2023-01-20T21:37:44.476Z,21.80
2023-01-20T21:40:13.480Z,20.15
2023-01-20T21:42:41.208Z,20.67
2023-01-20T21:45:09.281Z,19.52
2023-01-20T21:47:38.381Z,20.50
2023-01-20T21:50:24.261Z,20.55
2023-01-20T21:52:52.099Z,20.58
2023-01-20T21:55:21.472Z,20.20
2023-01-20T21:57:51.512Z,20.60
2023-01-20T22:00:19.823Z,21.13
2023-01-20T22:02:48.985Z,20.70
2023-01-20T22:05:17.776Z,18.88
2023-01-20T22:07:47.810Z,19.77
2023-01-20T22:10:15.808Z,20.15
2023-01-20T22:12:43.584Z,18.27
2023-01-20T22:15:12.090Z,18.02
2023-01-20T22:17:41.363Z,16.75
2023-01-20T22:20:12.367Z,18.42
2023-01-20T22:22:40.011Z,18.50
2023-01-20T22:25:08.181Z,18.10
2023-01-20T22:27:35.811Z,18.63
2023-01-20T22:30:03.540Z,19.77
2023-01-20T22:32:31.234Z,20.77
2023-01-20T22:34:58.956Z,22.90
2023-01-20T22:37:27.991Z,21.90
2023-01-20T22:39:55.698Z,21.40
2023-01-20T22:42:23.344Z,23.63
2023-01-20T22:44:50.965Z,23.58
2023-01-20T22:47:18.617Z,24.65
2023-01-20T22:49:46.259Z,23.48
2023-01-20T22:52:14.102Z,24.42
2023-01-20T22:54:43.112Z,23.77
2023-01-20T23:01:55.115Z,25.67
2023-01-20T23:04:22.820Z,25.73
2023-01-20T23:06:50.464Z,26.58
2023-01-20T23:09:18.213Z,26.88
2023-01-20T23:11:46.776Z,27.67
2023-01-20T23:17:11.468Z,28.50
2023-01-20T23:19:39.134Z,28.58
2023-01-20T23:22:06.774Z,28.10
2023-01-20T23:24:34.564Z,29.45
2023-01-20T23:27:02.205Z,29.55
2023-01-20T23:29:30.051Z,26.75
2023-01-20T23:31:57.743Z,24.17
2023-01-20T23:34:27.268Z,25.70
2023-01-20T23:36:54.955Z,29.85
2023-01-20T23:39:22.790Z,26.83
2023-01-20T23:41:50.574Z,24.23
2023-01-20T23:44:18.207Z,25.83
2023-01-20T23:46:45.893Z,25.63
2023-01-20T23:49:13.581Z,22.65
2023-01-20T23:51:42.590Z,24.63
2023-01-20T23:54:13.271Z,23.83
2023-01-20T23:56:41.011Z,26.52
2023-01-20T23:59:08.685Z,24.00
